Seaexpressii — HO4619 — position and weather

sailwx.info

Track history (hours):
 
Tides and Currents Weather Stations Pressure Air Temp Water Temp Dewpoint Dewpoint Depression Visibility Wind Speed Wind Dir Waves Ship Positions

Seaexpressii

Last reported at 2014-Oct-30 01:32 UTC. Time now 2014-Oct-30 19:03 UTC.
Position N 26°02' W 079°28'.

Length 37 m; draft 2 m.

Type: Ship. MMSI: 356449000.

Date/timePositionNaut miles runAvg speedWind from/ knotsBaromVisibWave heightAir tempDewpointWater temp
2014-Oct-30 01:32N 26°02' W 079°28'12 9.4
2014-Oct-30 00:17N 26°03' W 079°41'7 9.6
2014-Oct-29 23:33N 26°04' W 079°49'10 9.9
2014-Oct-29 22:33N 26°05' W 079°60'6 6.1
2014-Oct-29 21:32N 26°05' W 080°07'0 0.0
2014-Oct-29 20:32N 26°05' W 080°07'0 0.0
2014-Oct-29 19:32N 26°05' W 080°07'0 0.0
2014-Oct-29 18:32N 26°05' W 080°07'2 1.5
2014-Oct-29 17:32N 26°04' W 080°08'0 0.0
2014-Oct-29 16:32N 26°04' W 080°08'0 0.0
2014-Oct-29 15:23N 26°04' W 080°08'0 0.0
2014-Oct-29 14:20N 26°04' W 080°08'0 0.0
2014-Oct-29 13:26N 26°04' W 080°08'0 0.0
2014-Oct-29 12:26N 26°04' W 080°08'0 0.1
2014-Oct-29 11:29N 26°04' W 080°08'0 0.0
2014-Oct-29 10:29N 26°04' W 080°08'0 0.0
2014-Oct-29 09:26N 26°04' W 080°08'0 0.0
2014-Oct-29 08:32N 26°04' W 080°08'0 0.0
2014-Oct-29 07:29N 26°04' W 080°08'0 0.0
2014-Oct-29 06:29N 26°04' W 080°08'0 0.0
2014-Oct-29 05:32N 26°04' W 080°08'0 0.0
2014-Oct-29 04:32N 26°04' W 080°08'0 0.0
2014-Oct-29 03:32N 26°04' W 080°08'0 0.0
2014-Oct-29 02:32N 26°04' W 080°08'0 0.0
2014-Oct-29 01:23N 26°04' W 080°08'0 0.0
2014-Oct-29 00:26N 26°04' W 080°08'0 0.0
2014-Oct-28 23:26N 26°04' W 080°08'0 0.0
2014-Oct-28 22:26N 26°04' W 080°08'0 0.1
2014-Oct-28 21:29N 26°04' W 080°08'0 0.0
2014-Oct-28 20:29N 26°04' W 080°08'0 0.0
2014-Oct-28 19:29N 26°04' W 080°08'0 0.0
2014-Oct-28 18:32N 26°04' W 080°08'0 0.0
2014-Oct-28 17:32N 26°04' W 080°08'0 0.0
2014-Oct-28 16:32N 26°04' W 080°08'0 0.0
2014-Oct-28 15:32N 26°04' W 080°08'0 0.0
2014-Oct-28 14:32N 26°04' W 080°08'0 0.0
2014-Oct-28 13:32N 26°04' W 080°08'0 0.0
2014-Oct-28 12:32N 26°04' W 080°08'0 0.0
2014-Oct-28 11:23N 26°04' W 080°08'0 0.0
2014-Oct-28 10:26N 26°04' W 080°08'0 0.0
2014-Oct-28 09:26N 26°04' W 080°08'0 0.0
2014-Oct-28 08:26N 26°04' W 080°08'0 0.0
2014-Oct-28 07:29N 26°04' W 080°08'0 0.0
2014-Oct-28 06:29N 26°04' W 080°08'0 0.0
2014-Oct-28 05:29N 26°04' W 080°08'0 0.0
2014-Oct-28 04:32N 26°04' W 080°08'0 0.0
2014-Oct-28 03:32N 26°04' W 080°08'0 0.0
2014-Oct-28 02:32N 26°04' W 080°08'0 0.0
2014-Oct-28 01:32N 26°04' W 080°08'0 0.0
2014-Oct-28 00:32N 26°04' W 080°08'0 0.0
2014-Oct-27 23:32N 26°04' W 080°08'0 0.0
2014-Oct-27 22:23N 26°04' W 080°08'0 0.0
2014-Oct-27 21:23N 26°04' W 080°08'0 0.0
2014-Oct-27 20:26N 26°04' W 080°08'0 0.0
2014-Oct-27 19:26N 26°04' W 080°08'0 0.0
2014-Oct-27 18:23N 26°04' W 080°08'0 0.0
2014-Oct-27 17:26N 26°04' W 080°08'0 0.0
2014-Oct-27 16:29N 26°04' W 080°08'0 0.0
2014-Oct-27 15:29N 26°04' W 080°08'0 0.0
2014-Oct-27 14:32N 26°04' W 080°08'0 0.0
2014-Oct-27 13:32N 26°04' W 080°08'0 0.0
2014-Oct-27 12:32N 26°04' W 080°08'0 0.0
2014-Oct-27 11:32N 26°04' W 080°08'0 0.0
2014-Oct-27 10:32N 26°04' W 080°08'0 0.0
2014-Oct-27 09:32N 26°04' W 080°08'0 0.0
2014-Oct-27 08:32N 26°04' W 080°08'0 0.0
2014-Oct-27 07:23N 26°04' W 080°08'0 0.0
2014-Oct-27 06:23N 26°04' W 080°08'0 0.0
2014-Oct-27 05:23N 26°04' W 080°08'0 0.0
2014-Oct-27 04:26N 26°04' W 080°08'0 0.0
2014-Oct-27 03:29N 26°04' W 080°08'0 0.0
2014-Oct-27 02:29N 26°04' W 080°08'0 0.0
2014-Oct-27 01:29N 26°04' W 080°08'0 0.0
2014-Oct-27 00:32N 26°04' W 080°08'0 0.0
2014-Oct-26 23:32N 26°04' W 080°08'0 0.0
2014-Oct-26 22:32N 26°04' W 080°08'0 0.0
2014-Oct-26 21:32N 26°04' W 080°08'0 0.0
2014-Oct-26 20:32N 26°04' W 080°08'0 0.0
2014-Oct-26 19:32N 26°04' W 080°08'0 0.0
2014-Oct-26 18:32N 26°04' W 080°08'1 0.5
2014-Oct-26 17:33N 26°04' W 080°07'5 4.7
2014-Oct-26 16:33N 26°03' W 080°02'10 9.8
2014-Oct-26 15:33N 25°60' W 079°52'1110.6
2014-Oct-26 14:33N 25°56' W 079°41'1110.4
2014-Oct-26 13:29N 25°54' W 079°29'  
2014-Oct-23 02:27N 26°01' W 079°32'910.0
2014-Oct-23 01:33N 26°01' W 079°42'10 9.6
2014-Oct-23 00:33N 26°02' W 079°53'9 9.5
2014-Oct-22 23:34N 26°04' W 080°03'4 4.4
2014-Oct-22 22:33N 26°04' W 080°08'0 0.0
2014-Oct-22 21:27N 26°04' W 080°08'0 0.0
2014-Oct-22 20:27N 26°04' W 080°08'0 0.0
2014-Oct-22 19:30N 26°04' W 080°08'0 0.0
2014-Oct-22 18:30N 26°04' W 080°08'0 0.0
2014-Oct-22 17:33N 26°04' W 080°08'0 0.0
2014-Oct-22 16:33N 26°04' W 080°08'0 0.0
2014-Oct-22 15:33N 26°04' W 080°08'0 0.0
2014-Oct-22 14:33N 26°04' W 080°08'0 0.0
2014-Oct-22 13:30N 26°04' W 080°08'0 0.0
2014-Oct-22 12:33N 26°04' W 080°08'0 0.0
2014-Oct-22 11:33N 26°04' W 080°08'0 0.0
2014-Oct-22 10:24N 26°04' W 080°08'0 0.0
2014-Oct-22 09:24N 26°04' W 080°08'0 0.0
2014-Oct-22 08:27N 26°04' W 080°08'0 0.0
2014-Oct-22 07:31N 26°04' W 080°08'0 0.0
2014-Oct-22 06:27N 26°04' W 080°08'0 0.0
2014-Oct-22 05:27N 26°04' W 080°08'0 0.0
2014-Oct-22 04:30N 26°04' W 080°08'0 0.0
2014-Oct-22 03:30N 26°04' W 080°08'0 0.0
2014-Oct-22 02:33N 26°04' W 080°08'0 0.0
2014-Oct-22 01:33N 26°04' W 080°08'0 0.0
2014-Oct-22 00:33N 26°04' W 080°08'0 0.0
2014-Oct-21 23:33N 26°04' W 080°08'0 0.0
2014-Oct-21 22:33N 26°04' W 080°08'0 0.0
2014-Oct-21 21:33N 26°04' W 080°08'0 0.0
2014-Oct-21 20:24N 26°04' W 080°08'0 0.0
2014-Oct-21 19:24N 26°04' W 080°08'0 0.0
2014-Oct-21 18:24N 26°04' W 080°08'0 0.0
2014-Oct-21 17:27N 26°04' W 080°08'0 0.0
2014-Oct-21 16:27N 26°04' W 080°08'0 0.0
2014-Oct-21 15:30N 26°04' W 080°08'0 0.0
2014-Oct-21 14:30N 26°04' W 080°08'0 0.0
2014-Oct-21 13:30N 26°04' W 080°08'0 0.0
2014-Oct-21 12:30N 26°04' W 080°08'0 0.0
2014-Oct-21 11:33N 26°04' W 080°08'0 0.0
2014-Oct-21 10:33N 26°04' W 080°08'0 0.0
2014-Oct-21 09:33N 26°04' W 080°08'0 0.0
2014-Oct-21 08:33N 26°04' W 080°08'0 0.0
2014-Oct-21 07:33N 26°04' W 080°08'0 0.0
2014-Oct-21 06:33N 26°04' W 080°08'0 0.0
2014-Oct-21 05:24N 26°04' W 080°08'0 0.0
2014-Oct-21 04:27N 26°04' W 080°08'0 0.0
2014-Oct-21 03:27N 26°04' W 080°08'0 0.0
2014-Oct-21 02:27N 26°04' W 080°08'0 0.0
2014-Oct-21 01:30N 26°04' W 080°08'0 0.0
2014-Oct-21 00:30N 26°04' W 080°08'0 0.0
2014-Oct-20 23:15N 26°04' W 080°08'0 0.0
2014-Oct-20 22:30N 26°04' W 080°08'0 0.0
2014-Oct-20 21:33N 26°04' W 080°08'0 0.0
2014-Oct-20 20:33N 26°04' W 080°08'3 3.5
2014-Oct-20 19:33N 26°06' W 080°05'1010.3
2014-Oct-20 18:33N 26°02' W 079°54'1110.8
2014-Oct-20 17:33N 25°57' W 079°43'1010.3
2014-Oct-20 16:33N 25°53' W 079°33'  
Track history (hours):
 
Tides and Currents Weather Stations Pressure Air Temp Water Temp Dewpoint Dewpoint Depression Visibility Wind Speed Wind Dir Waves Ship Positions

Seaexpressii

Last reported at 2014-Oct-30 01:32 UTC. Time now 2014-Oct-30 19:03 UTC.
Position N 26°02' W 079°28'.

Length 37 m; draft 2 m.

Type: Ship. MMSI: 356449000.

Date/timePositionNaut miles runAvg speedWind from/ knotsBaromVisibWave heightAir tempDewpointWater temp
2014-Oct-30 01:32N 26°02' W 079°28'12 9.4
2014-Oct-30 00:17N 26°03' W 079°41'7 9.6
2014-Oct-29 23:33N 26°04' W 079°49'10 9.9
2014-Oct-29 22:33N 26°05' W 079°60'6 6.1
2014-Oct-29 21:32N 26°05' W 080°07'0 0.0
2014-Oct-29 20:32N 26°05' W 080°07'0 0.0
2014-Oct-29 19:32N 26°05' W 080°07'0 0.0
2014-Oct-29 18:32N 26°05' W 080°07'2 1.5
2014-Oct-29 17:32N 26°04' W 080°08'0 0.0
2014-Oct-29 16:32N 26°04' W 080°08'0 0.0
2014-Oct-29 15:23N 26°04' W 080°08'0 0.0
2014-Oct-29 14:20N 26°04' W 080°08'0 0.0
2014-Oct-29 13:26N 26°04' W 080°08'0 0.0
2014-Oct-29 12:26N 26°04' W 080°08'0 0.1
2014-Oct-29 11:29N 26°04' W 080°08'0 0.0
2014-Oct-29 10:29N 26°04' W 080°08'0 0.0
2014-Oct-29 09:26N 26°04' W 080°08'0 0.0
2014-Oct-29 08:32N 26°04' W 080°08'0 0.0
2014-Oct-29 07:29N 26°04' W 080°08'0 0.0
2014-Oct-29 06:29N 26°04' W 080°08'0 0.0
2014-Oct-29 05:32N 26°04' W 080°08'0 0.0
2014-Oct-29 04:32N 26°04' W 080°08'0 0.0
2014-Oct-29 03:32N 26°04' W 080°08'0 0.0
2014-Oct-29 02:32N 26°04' W 080°08'0 0.0
2014-Oct-29 01:23N 26°04' W 080°08'0 0.0
2014-Oct-29 00:26N 26°04' W 080°08'0 0.0
2014-Oct-28 23:26N 26°04' W 080°08'0 0.0
2014-Oct-28 22:26N 26°04' W 080°08'0 0.1
2014-Oct-28 21:29N 26°04' W 080°08'0 0.0
2014-Oct-28 20:29N 26°04' W 080°08'0 0.0
2014-Oct-28 19:29N 26°04' W 080°08'0 0.0
2014-Oct-28 18:32N 26°04' W 080°08'0 0.0
2014-Oct-28 17:32N 26°04' W 080°08'0 0.0
2014-Oct-28 16:32N 26°04' W 080°08'0 0.0
2014-Oct-28 15:32N 26°04' W 080°08'0 0.0
2014-Oct-28 14:32N 26°04' W 080°08'0 0.0
2014-Oct-28 13:32N 26°04' W 080°08'0 0.0
2014-Oct-28 12:32N 26°04' W 080°08'0 0.0
2014-Oct-28 11:23N 26°04' W 080°08'0 0.0
2014-Oct-28 10:26N 26°04' W 080°08'0 0.0
2014-Oct-28 09:26N 26°04' W 080°08'0 0.0
2014-Oct-28 08:26N 26°04' W 080°08'0 0.0
2014-Oct-28 07:29N 26°04' W 080°08'0 0.0
2014-Oct-28 06:29N 26°04' W 080°08'0 0.0
2014-Oct-28 05:29N 26°04' W 080°08'0 0.0
2014-Oct-28 04:32N 26°04' W 080°08'0 0.0
2014-Oct-28 03:32N 26°04' W 080°08'0 0.0
2014-Oct-28 02:32N 26°04' W 080°08'0 0.0
2014-Oct-28 01:32N 26°04' W 080°08'0 0.0
2014-Oct-28 00:32N 26°04' W 080°08'0 0.0
2014-Oct-27 23:32N 26°04' W 080°08'0 0.0
2014-Oct-27 22:23N 26°04' W 080°08'0 0.0
2014-Oct-27 21:23N 26°04' W 080°08'0 0.0
2014-Oct-27 20:26N 26°04' W 080°08'0 0.0
2014-Oct-27 19:26N 26°04' W 080°08'0 0.0
2014-Oct-27 18:23N 26°04' W 080°08'0 0.0
2014-Oct-27 17:26N 26°04' W 080°08'0 0.0
2014-Oct-27 16:29N 26°04' W 080°08'0 0.0
2014-Oct-27 15:29N 26°04' W 080°08'0 0.0
2014-Oct-27 14:32N 26°04' W 080°08'0 0.0
2014-Oct-27 13:32N 26°04' W 080°08'0 0.0
2014-Oct-27 12:32N 26°04' W 080°08'0 0.0
2014-Oct-27 11:32N 26°04' W 080°08'0 0.0
2014-Oct-27 10:32N 26°04' W 080°08'0 0.0
2014-Oct-27 09:32N 26°04' W 080°08'0 0.0
2014-Oct-27 08:32N 26°04' W 080°08'0 0.0
2014-Oct-27 07:23N 26°04' W 080°08'0 0.0
2014-Oct-27 06:23N 26°04' W 080°08'0 0.0
2014-Oct-27 05:23N 26°04' W 080°08'0 0.0
2014-Oct-27 04:26N 26°04' W 080°08'0 0.0
2014-Oct-27 03:29N 26°04' W 080°08'0 0.0
2014-Oct-27 02:29N 26°04' W 080°08'0 0.0
2014-Oct-27 01:29N 26°04' W 080°08'0 0.0
2014-Oct-27 00:32N 26°04' W 080°08'0 0.0
2014-Oct-26 23:32N 26°04' W 080°08'0 0.0
2014-Oct-26 22:32N 26°04' W 080°08'0 0.0
2014-Oct-26 21:32N 26°04' W 080°08'0 0.0
2014-Oct-26 20:32N 26°04' W 080°08'0 0.0
2014-Oct-26 19:32N 26°04' W 080°08'0 0.0
2014-Oct-26 18:32N 26°04' W 080°08'1 0.5
2014-Oct-26 17:33N 26°04' W 080°07'5 4.7
2014-Oct-26 16:33N 26°03' W 080°02'10 9.8
2014-Oct-26 15:33N 25°60' W 079°52'1110.6
2014-Oct-26 14:33N 25°56' W 079°41'1110.4
2014-Oct-26 13:29N 25°54' W 079°29'  
2014-Oct-23 02:27N 26°01' W 079°32'910.0
2014-Oct-23 01:33N 26°01' W 079°42'10 9.6
2014-Oct-23 00:33N 26°02' W 079°53'9 9.5
2014-Oct-22 23:34N 26°04' W 080°03'4 4.4
2014-Oct-22 22:33N 26°04' W 080°08'0 0.0
2014-Oct-22 21:27N 26°04' W 080°08'0 0.0
2014-Oct-22 20:27N 26°04' W 080°08'0 0.0
2014-Oct-22 19:30N 26°04' W 080°08'0 0.0
2014-Oct-22 18:30N 26°04' W 080°08'0 0.0
2014-Oct-22 17:33N 26°04' W 080°08'0 0.0
2014-Oct-22 16:33N 26°04' W 080°08'0 0.0
2014-Oct-22 15:33N 26°04' W 080°08'0 0.0
2014-Oct-22 14:33N 26°04' W 080°08'0 0.0
2014-Oct-22 13:30N 26°04' W 080°08'0 0.0
2014-Oct-22 12:33N 26°04' W 080°08'0 0.0
2014-Oct-22 11:33N 26°04' W 080°08'0 0.0
2014-Oct-22 10:24N 26°04' W 080°08'0 0.0
2014-Oct-22 09:24N 26°04' W 080°08'0 0.0
2014-Oct-22 08:27N 26°04' W 080°08'0 0.0
2014-Oct-22 07:31N 26°04' W 080°08'0 0.0
2014-Oct-22 06:27N 26°04' W 080°08'0 0.0
2014-Oct-22 05:27N 26°04' W 080°08'0 0.0
2014-Oct-22 04:30N 26°04' W 080°08'0 0.0
2014-Oct-22 03:30N 26°04' W 080°08'0 0.0
2014-Oct-22 02:33N 26°04' W 080°08'0 0.0
2014-Oct-22 01:33N 26°04' W 080°08'0 0.0
2014-Oct-22 00:33N 26°04' W 080°08'0 0.0
2014-Oct-21 23:33N 26°04' W 080°08'0 0.0
2014-Oct-21 22:33N 26°04' W 080°08'0 0.0
2014-Oct-21 21:33N 26°04' W 080°08'0 0.0
2014-Oct-21 20:24N 26°04' W 080°08'0 0.0
2014-Oct-21 19:24N 26°04' W 080°08'0 0.0
2014-Oct-21 18:24N 26°04' W 080°08'0 0.0
2014-Oct-21 17:27N 26°04' W 080°08'0 0.0
2014-Oct-21 16:27N 26°04' W 080°08'0 0.0
2014-Oct-21 15:30N 26°04' W 080°08'0 0.0
2014-Oct-21 14:30N 26°04' W 080°08'0 0.0
2014-Oct-21 13:30N 26°04' W 080°08'0 0.0
2014-Oct-21 12:30N 26°04' W 080°08'0 0.0
2014-Oct-21 11:33N 26°04' W 080°08'0 0.0
2014-Oct-21 10:33N 26°04' W 080°08'0 0.0
2014-Oct-21 09:33N 26°04' W 080°08'0 0.0
2014-Oct-21 08:33N 26°04' W 080°08'0 0.0
2014-Oct-21 07:33N 26°04' W 080°08'0 0.0
2014-Oct-21 06:33N 26°04' W 080°08'0 0.0
2014-Oct-21 05:24N 26°04' W 080°08'0 0.0
2014-Oct-21 04:27N 26°04' W 080°08'0 0.0
2014-Oct-21 03:27N 26°04' W 080°08'0 0.0
2014-Oct-21 02:27N 26°04' W 080°08'0 0.0
2014-Oct-21 01:30N 26°04' W 080°08'0 0.0
2014-Oct-21 00:30N 26°04' W 080°08'0 0.0
2014-Oct-20 23:15N 26°04' W 080°08'0 0.0
2014-Oct-20 22:30N 26°04' W 080°08'0 0.0
2014-Oct-20 21:33N 26°04' W 080°08'0 0.0
2014-Oct-20 20:33N 26°04' W 080°08'3 3.5
2014-Oct-20 19:33N 26°06' W 080°05'1010.3
2014-Oct-20 18:33N 26°02' W 079°54'1110.8
2014-Oct-20 17:33N 25°57' W 079°43'1010.3
2014-Oct-20 16:33N 25°53' W 079°33'  

Dump ship's entire track history